Time;durP1;ratioP1;P1;durP2;ratioP2;P2;SDS_P1;SDS_P2;PMS_P1;PMS_P2;Temp;Humidity;BMP_temperature;BMP_pressure;BME280_temperature;BME280_humidity;BME280_pressure;Samples;Min_cycle;Max_cycle;Signal;HPM_P1;HPM_P2
2022/07/02 00:00:44;;;;;;;6.60;6.00;;;;;;;20.13;70.80;99651.39;437897;1269;141370;-59
2022/07/02 00:10:52;;;;;;;7.10;6.50;;;;;;;19.96;71.33;99663.02;434527;1270;141166;-60
2022/07/02 00:20:58;;;;;;;4.90;4.60;;;;;;;19.80;71.62;99683.13;434125;1269;141277;-60
2022/07/02 00:31:04;;;;;;;5.30;4.90;;;;;;;19.58;71.90;99663.30;431515;1270;141596;-61
2022/07/02 00:41:10;;;;;;;5.20;4.70;;;;;;;19.28;72.15;99667.50;430327;1269;142556;-59
2022/07/02 00:51:16;;;;;;;5.40;4.60;;;;;;;18.99;72.72;99699.77;441534;1269;141641;-59
2022/07/02 01:01:22;;;;;;;5.80;5.30;;;;;;;18.85;72.88;99708.01;442404;1269;141749;-58
2022/07/02 01:11:30;;;;;;;6.10;5.50;;;;;;;18.79;73.18;99698.49;435070;1269;143227;-58
2022/07/02 01:21:37;;;;;;;5.90;5.50;;;;;;;18.65;73.61;99710.27;431088;1267;141683;-58
2022/07/02 01:31:43;;;;;;;5.80;5.40;;;;;;;18.56;73.96;99752.97;437878;1269;141653;-59
2022/07/02 01:41:49;;;;;;;7.30;6.70;;;;;;;18.64;74.23;99779.49;435167;1269;141437;-59
2022/07/02 01:51:55;;;;;;;7.30;6.60;;;;;;;18.57;74.19;99771.49;443209;1269;141789;-58
2022/07/02 02:02:01;;;;;;;5.70;5.30;;;;;;;18.53;74.31;99767.27;445068;1270;142442;-58
2022/07/02 02:12:09;;;;;;;6.90;5.60;;;;;;;18.45;74.48;99763.92;440500;1270;199628;-57
2022/07/02 02:22:16;;;;;;;8.10;7.30;;;;;;;18.45;74.73;99771.77;439530;1270;140997;-57
2022/07/02 02:32:21;;;;;;;7.40;6.70;;;;;;;18.27;74.79;99780.31;430390;1270;141851;-58
2022/07/02 02:42:27;;;;;;;9.10;8.20;;;;;;;18.09;75.39;99782.50;433090;1269;140972;-58
2022/07/02 02:52:33;;;;;;;8.00;6.60;;;;;;;17.95;75.53;99785.19;431371;1270;143093;-58
2022/07/02 03:02:39;;;;;;;6.10;5.60;;;;;;;17.79;75.63;99796.48;430807;1270;141576;-59
2022/07/02 03:12:45;;;;;;;8.10;5.10;;;;;;;17.65;76.10;99808.93;431905;1270;140974;-59
2022/07/02 03:22:51;;;;;;;6.20;5.70;;;;;;;17.56;76.24;99818.59;432693;1270;141545;-58
2022/07/02 03:32:57;;;;;;;7.00;6.40;;;;;;;17.48;76.77;99836.69;430637;1270;144621;-57
2022/07/02 03:43:03;;;;;;;5.70;5.30;;;;;;;17.32;77.65;99840.90;431790;1270;143339;-59
2022/07/02 03:53:09;;;;;;;5.70;5.10;;;;;;;17.16;77.99;99844.72;431722;1270;142440;-59
2022/07/02 04:03:15;;;;;;;6.50;5.90;;;;;;;17.11;78.24;99852.14;434741;1269;143636;-58
2022/07/02 04:13:21;;;;;;;6.40;5.90;;;;;;;17.14;78.25;99859.99;433482;1270;141136;-58
2022/07/02 04:23:27;;;;;;;5.90;5.40;;;;;;;17.13;78.34;99862.20;431257;1269;142605;-58
2022/07/02 04:33:33;;;;;;;4.50;4.10;;;;;;;17.07;78.70;99869.17;433671;1270;141545;-60
2022/07/02 04:43:39;;;;;;;4.70;4.30;;;;;;;17.07;78.75;99865.52;431814;1270;141577;-57
2022/07/02 04:53:45;;;;;;;4.40;4.00;;;;;;;16.99;78.97;99882.82;431720;1270;142117;-58
2022/07/02 05:03:51;;;;;;;3.00;2.80;;;;;;;16.90;78.87;99896.13;431218;1271;141458;-59
2022/07/02 05:13:57;;;;;;;2.60;2.50;;;;;;;16.84;79.01;99905.86;431579;1270;142194;-58
2022/07/02 05:24:04;;;;;;;2.60;2.50;;;;;;;16.67;79.25;99920.20;430916;1269;142294;-59
2022/07/02 05:34:10;;;;;;;2.30;2.10;;;;;;;16.62;79.42;99937.75;431923;1270;142141;-59
2022/07/02 05:44:16;;;;;;;2.10;2.00;;;;;;;16.62;79.28;99962.27;431673;1270;142982;-60
2022/07/02 05:54:21;;;;;;;2.90;2.70;;;;;;;16.69;79.48;99970.17;432512;1270;141480;-59
2022/07/02 06:04:27;;;;;;;2.40;2.30;;;;;;;16.72;79.43;99977.73;431710;1270;141186;-60
2022/07/02 06:14:34;;;;;;;1.60;1.50;;;;;;;16.58;79.83;99998.27;432353;1270;142084;-59
2022/07/02 06:24:40;;;;;;;0.50;0.50;;;;;;;16.44;79.70;100032.81;431576;1270;140958;-59
2022/07/02 06:34:47;;;;;;;0.60;0.30;;;;;;;16.41;79.52;100033.79;433338;1270;142412;-57
2022/07/02 06:44:55;;;;;;;2.00;1.80;;;;;;;16.58;79.02;100045.15;431039;1270;142082;-59
2022/07/02 06:55:03;;;;;;;1.50;1.20;;;;;;;16.56;78.63;100074.13;432829;1270;152669;-58
2022/07/02 07:05:10;;;;;;;1.10;1.10;;;;;;;16.41;78.62;100087.86;430310;1270;141373;-58
2022/07/02 07:15:16;;;;;;;1.80;1.70;;;;;;;16.40;79.02;100098.86;430922;1270;142752;-58
2022/07/02 07:25:22;;;;;;;3.10;2.60;;;;;;;16.65;79.33;100110.27;431512;1270;142712;-59
2022/07/02 07:35:28;;;;;;;1.60;1.50;;;;;;;16.70;79.00;100124.06;431928;1270;142809;-58
2022/07/02 07:45:34;;;;;;;2.50;2.40;;;;;;;16.61;79.28;100141.23;431274;1270;142125;-60
2022/07/02 07:55:40;;;;;;;1.40;1.30;;;;;;;16.71;79.48;100155.47;431687;1270;141086;-59
2022/07/02 08:05:47;;;;;;;2.30;1.50;;;;;;;17.07;79.22;100169.52;431070;1270;141728;-60
2022/07/02 08:15:53;;;;;;;1.60;1.50;;;;;;;17.18;78.10;100181.02;433145;1270;141910;-64
2022/07/02 08:25:59;;;;;;;2.10;1.20;;;;;;;16.98;78.07;100182.42;433699;1270;141663;-60
2022/07/02 08:36:05;;;;;;;0.50;0.50;;;;;;;17.09;77.87;100184.80;432111;1270;142059;-63
2022/07/02 08:46:12;;;;;;;1.40;0.40;;;;;;;18.62;76.35;100184.75;433379;1270;141232;-59
2022/07/02 08:56:20;;;;;;;0.50;0.40;;;;;;;20.54;72.51;100186.80;431983;1271;142122;-59
2022/07/02 09:06:29;;;;;;;0.80;0.30;;;;;;;19.67;70.67;100205.74;432866;1270;141585;-60
2022/07/02 09:16:36;;;;;;;0.60;0.40;;;;;;;18.74;71.30;100220.12;431898;1271;141457;-60
2022/07/02 09:26:42;;;;;;;1.60;0.40;;;;;;;18.08;72.21;100223.70;431871;1271;141852;-59
2022/07/02 09:36:48;;;;;;;0.60;0.30;;;;;;;17.95;72.50;100231.63;431766;1271;141086;-59
2022/07/02 09:46:54;;;;;;;1.60;0.50;;;;;;;18.39;72.32;100236.83;430738;1270;141096;-62
2022/07/02 09:57:01;;;;;;;1.00;0.70;;;;;;;18.57;71.91;100244.27;432726;1271;249001;-61
2022/07/02 10:07:07;;;;;;;1.00;0.80;;;;;;;18.71;71.62;100250.55;431552;1270;142820;-60
2022/07/02 10:17:15;;;;;;;0.80;0.80;;;;;;;18.42;71.96;100255.01;430072;1270;141318;-61
2022/07/02 10:27:24;;;;;;;1.20;1.20;;;;;;;18.03;73.10;100255.10;433051;1270;141450;-62
2022/07/02 10:37:31;;;;;;;1.70;1.50;;;;;;;17.79;73.80;100246.24;432214;1270;141549;-61
2022/07/02 10:47:38;;;;;;;2.90;1.60;;;;;;;18.11;73.72;100248.98;431594;1270;142174;-61
2022/07/02 10:57:44;;;;;;;1.00;1.00;;;;;;;18.05;73.31;100254.89;432646;1270;142211;-61
2022/07/02 11:07:49;;;;;;;1.50;1.00;;;;;;;17.90;73.01;100264.65;431269;1271;142757;-62
2022/07/02 11:18:00;;;;;;;1.30;1.20;;;;;;;18.04;72.87;100268.65;431165;1270;142871;-60
2022/07/02 11:28:06;;;;;;;2.30;1.70;;;;;;;18.27;72.54;100267.25;435335;1270;142225;-62
2022/07/02 11:38:12;;;;;;;4.20;3.70;;;;;;;18.23;71.96;100275.18;433510;1270;143413;-62
2022/07/02 11:48:22;;;;;;;3.10;2.70;;;;;;;18.25;71.76;100280.02;436659;1270;140996;-61
2022/07/02 11:58:37;;;;;;;3.40;3.10;;;;;;;18.19;71.40;100281.52;430954;1270;141791;-60
2022/07/02 12:08:43;;;;;;;3.30;3.10;;;;;;;18.02;71.41;100287.41;435372;1270;141874;-60
2022/07/02 12:19:03;;;;;;;3.10;2.90;;;;;;;18.54;70.98;100292.27;437712;1270;141270;-61
2022/07/02 12:39:42;;;;;;;3.00;2.80;;;;;;;18.16;71.12;100299.36;445957;1270;141846;-60
2022/07/02 12:49:54;;;;;;;4.10;3.40;;;;;;;19.05;70.39;100299.20;441572;1270;144066;-60
2022/07/02 13:00:00;;;;;;;3.30;3.10;;;;;;;20.01;68.56;100303.41;433390;1269;141411;-61
2022/07/02 13:10:07;;;;;;;2.40;2.30;;;;;;;20.30;66.69;100304.29;431095;1270;142906;-61
2022/07/02 13:20:14;;;;;;;2.50;2.30;;;;;;;20.02;66.06;100300.10;430624;1270;141916;-60
2022/07/02 13:30:20;;;;;;;3.70;2.90;;;;;;;19.69;66.31;100297.09;438197;1269;142907;-62
2022/07/02 13:40:26;;;;;;;2.80;2.60;;;;;;;20.18;65.84;100296.84;441116;1269;141630;-59
2022/07/02 13:50:32;;;;;;;3.70;3.40;;;;;;;20.81;64.70;100291.89;446815;1269;142982;-61
2022/07/02 14:00:38;;;;;;;2.90;2.70;;;;;;;21.08;63.22;100296.05;437908;1270;142297;-59
2022/07/02 14:10:44;;;;;;;2.10;2.00;;;;;;;20.88;62.71;100301.73;431820;1269;141269;-62
2022/07/02 14:20:50;;;;;;;2.30;2.10;;;;;;;20.91;62.19;100303.91;432505;1269;141751;-62
2022/07/02 14:30:57;;;;;;;2.70;2.30;;;;;;;20.87;61.84;100302.70;432271;1270;143236;-60
2022/07/02 14:51:29;;;;;;;2.40;2.20;;;;;;;21.05;61.38;100286.41;431276;1269;142474;-69
2022/07/02 15:01:35;;;;;;;3.00;2.80;;;;;;;20.72;61.31;100289.33;431617;1270;141652;-67
2022/07/02 15:11:41;;;;;;;2.00;1.90;;;;;;;20.02;62.45;100289.63;430726;1269;141928;-64
2022/07/02 15:21:51;;;;;;;1.80;1.70;;;;;;;19.53;62.97;100291.59;447434;1270;142237;-67
2022/07/02 15:31:57;;;;;;;1.40;1.40;;;;;;;19.34;63.41;100283.88;447326;1270;142336;-67
2022/07/02 15:42:04;;;;;;;2.10;1.70;;;;;;;19.30;63.84;100275.86;447140;1270;142410;-58
2022/07/02 15:52:16;;;;;;;1.30;1.30;;;;;;;19.57;63.67;100266.90;447266;1270;142139;-59
2022/07/02 16:02:26;;;;;;;1.80;1.40;;;;;;;19.65;63.35;100260.48;446490;1270;142047;-59
2022/07/02 16:12:32;;;;;;;2.20;1.40;;;;;;;19.57;63.22;100255.41;447305;1269;141717;-60
2022/07/02 16:22:40;;;;;;;1.50;1.40;;;;;;;19.40;63.21;100255.45;445219;1271;142168;-60
2022/07/02 16:32:57;;;;;;;1.30;1.20;;;;;;;19.49;63.25;100244.91;446829;1269;142322;-59
2022/07/02 16:43:05;;;;;;;2.00;1.50;;;;;;;19.56;63.01;100245.32;447554;1269;141694;-59
2022/07/02 16:53:12;;;;;;;2.80;1.20;;;;;;;19.70;62.84;100244.40;446908;1270;143469;-60
2022/07/02 17:03:19;;;;;;;1.30;1.20;;;;;;;19.71;62.81;100243.45;447665;1267;143718;-59
2022/07/02 17:13:25;;;;;;;1.60;1.30;;;;;;;19.63;62.67;100237.42;447665;1269;142022;-60
2022/07/02 17:23:31;;;;;;;2.20;1.20;;;;;;;19.60;62.54;100233.05;446889;1270;142609;-61
2022/07/02 17:33:37;;;;;;;1.30;1.20;;;;;;;19.45;62.59;100226.79;447409;1270;141796;-59
2022/07/02 17:43:43;;;;;;;1.80;1.20;;;;;;;19.36;62.61;100216.42;447424;1271;141774;-60
2022/07/02 17:53:49;;;;;;;2.00;1.30;;;;;;;19.33;62.86;100211.67;446448;1270;141334;-60
2022/07/02 18:03:55;;;;;;;0.80;0.80;;;;;;;19.22;62.76;100205.23;447336;1269;141766;-60
2022/07/02 18:14:01;;;;;;;1.50;1.40;;;;;;;19.27;62.83;100202.36;433801;1270;142047;-60
2022/07/02 18:24:08;;;;;;;2.30;1.20;;;;;;;19.32;62.51;100202.73;430527;1270;213477;-59
2022/07/02 18:34:14;;;;;;;2.30;1.40;;;;;;;19.28;61.46;100204.20;430947;1270;142139;-59
2022/07/02 18:44:21;;;;;;;2.40;1.40;;;;;;;19.10;60.75;100195.48;429939;1269;143382;-59
2022/07/02 18:54:27;;;;;;;2.10;1.90;;;;;;;18.89;60.37;100185.08;430103;1272;141976;-59
2022/07/02 19:04:33;;;;;;;1.70;1.60;;;;;;;18.50;60.72;100186.80;434514;1269;141299;-60
2022/07/02 19:14:40;;;;;;;2.80;1.80;;;;;;;18.04;62.08;100194.95;446436;1270;141841;-59
2022/07/02 19:24:46;;;;;;;4.30;2.40;;;;;;;17.59;63.16;100201.36;443137;1269;141618;-60
2022/07/02 19:34:53;;;;;;;7.40;2.90;;;;;;;17.17;64.41;100203.94;430099;1270;141656;-59
2022/07/02 19:45:00;;;;;;;3.50;2.50;;;;;;;16.71;65.49;100209.16;432158;1270;141838;-58
2022/07/02 19:55:07;;;;;;;6.70;2.80;;;;;;;16.36;66.35;100210.20;440155;1270;141874;-59
2022/07/02 20:06:04;;;;;;;8.60;3.60;;;;;;;16.01;67.13;100204.70;431330;1262;141370;31
2022/07/02 20:16:10;;;;;;;6.40;3.10;;;;;;;15.66;67.88;100202.55;428899;1279;143333;-59
2022/07/02 20:26:17;;;;;;;7.50;4.30;;;;;;;15.37;68.49;100195.00;428192;1277;143646;-61
2022/07/02 20:36:23;;;;;;;7.80;4.00;;;;;;;15.06;69.33;100185.65;428449;1279;142409;-57
2022/07/02 20:46:30;;;;;;;9.60;5.60;;;;;;;14.79;69.80;100186.89;428291;1279;143252;-59
2022/07/02 20:56:36;;;;;;;8.50;4.70;;;;;;;14.54;70.18;100190.05;427282;1279;143817;-58
2022/07/02 21:06:42;;;;;;;6.70;5.00;;;;;;;14.33;71.23;100192.91;429520;1279;143260;-58
2022/07/02 21:16:48;;;;;;;6.80;3.90;;;;;;;14.14;71.72;100196.02;429744;1278;140957;-59
2022/07/02 21:26:54;;;;;;;4.30;3.70;;;;;;;13.96;72.04;100200.34;430038;1278;142826;-58
2022/07/02 21:37:00;;;;;;;7.20;4.90;;;;;;;13.76;72.30;100201.55;428266;1278;142276;-58
2022/07/02 21:47:08;;;;;;;7.20;5.70;;;;;;;13.62;72.65;100200.88;429620;1277;183424;-60
2022/07/02 21:57:14;;;;;;;4.40;4.00;;;;;;;13.49;72.93;100206.52;436325;1277;256768;-59
2022/07/02 22:07:20;;;;;;;8.00;5.00;;;;;;;13.28;73.26;100198.85;444677;1277;143616;-59
2022/07/02 22:17:26;;;;;;;12.70;6.70;;;;;;;13.20;74.06;100195.52;444317;1277;143001;-59
2022/07/02 22:27:31;;;;;;;9.30;5.60;;;;;;;13.10;74.32;100213.34;445522;1277;142616;-59
2022/07/02 22:37:37;;;;;;;7.80;5.40;;;;;;;12.98;74.15;100213.66;445487;1277;142883;-59
2022/07/02 22:47:43;;;;;;;9.00;6.60;;;;;;;12.90;74.69;100214.80;444729;1277;142972;-60
2022/07/02 22:57:49;;;;;;;12.70;5.60;;;;;;;12.86;74.67;100209.27;445393;1277;142583;-60
2022/07/02 23:07:54;;;;;;;8.20;5.80;;;;;;;12.80;74.61;100197.54;445438;1277;143260;-60
2022/07/02 23:18:00;;;;;;;6.50;5.20;;;;;;;12.94;74.64;100202.27;444558;1278;145359;-60
2022/07/02 23:28:06;;;;;;;7.50;5.50;;;;;;;13.22;74.71;100199.78;445508;1278;143478;-60
2022/07/02 23:38:12;;;;;;;9.40;6.60;;;;;;;13.51;74.65;100196.15;444742;1277;144842;-60
2022/07/02 23:48:18;;;;;;;8.20;6.40;;;;;;;13.70;74.37;100192.60;445528;1277;144063;-60
2022/07/02 23:58:25;;;;;;;7.50;6.80;;;;;;;13.92;74.49;100189.73;445554;1277;144887;-60
